Gosnells City, Western Australia

12:17 AM AWST on January 29, 2015 (GMT +0800)
Gosnells | Change Station
CLOSE
Current Station
Personal Weather Station
Location: Gosnells, WESTERN AUSTRALIA
Elevation: 39 ft
Nearby Weather Stations

Elev 39 ft 32.07 °S, 115.99 °E | Updated 2 minutes ago

Scattered Clouds
Scattered Clouds
81.1 °F
Feels Like 81 °F
N
1.2
Wind Variable Wind from South
Gusts 3.8 mph

Today
High -- | Low -- °F
--% Chance of Precip.
Yesterday
High -- | Low -- °F
Precip. -- in
5:37 AM 7:20 PM
Waxing Gibbous, 66% visible
Pressure 29.71 in
Visibility 6.2 miles
Clouds Few 8000 ft
Scattered Clouds 14000 ft
Heat Index 81 °F
Dew Point 58 °F
Humidity 46%
Rainfall 0.00 in
Snow Depth Not available.
UV 0.0 out of 12
Pollen Not available.
Air Quality Not available.
Flu Activity Not available.
SPECI YPPH 281600Z 27006KT 9999 VCTS FEW080CB SCT140 25/17 Q1006 RMK CB LIGHTNING SW - SE FM1630 25005KT CAVOK

More Conditions Fewer Conditions

Pressure 29.71 in
Visibility 6.2 miles
Clouds Few 8000 ft
Scattered Clouds 14000 ft
Heat Index 81 °F
Dew Point 58 °F
Humidity 46%
Rainfall 0.00 in
Snow Depth Not available.
UV 0.0 out of 12
Pollen Not available.
Air Quality Not available.
Flu Activity Not available.
SPECI YPPH 281600Z 27006KT 9999 VCTS FEW080CB SCT140 25/17 Q1006 RMK CB LIGHTNING SW - SE FM1630 25005KT CAVOK

More Conditions Fewer Conditions

10-Day Weather Forecast

Almanac

Astronomy

Jan. 29, 2015 Rise Set
Actual Time
Civil Twilight
Nautical Twilight
Astronomical Twilight
Moon
Length of Visible Light
Length of Day
Tomorrow will be .
, % of the Moon is Illuminated

Today's Extremes

Country Highs Country Lows

Community

WunderPhotos

Upload Photos

1,791,189 photos uploaded!

WunderBlogs® & News

Nearby

Air Quality

  Air Quality AQ Index Pollutant
Not available.

Snow Depth

Station Depth Elevation

Earthquake Activity

City Distance Mag. Time & Date
Minimum magnitude displayed is 2.5.

Coastal Water Temperatures

Place Temperature

Nearby Weather Stations